sensor_id;sensor_type;location;lat;lon;timestamp;P1;durP1;ratioP1;P2;durP2;ratioP2
40244;SDS011;25963;42.694;23.600;2023-03-01T00:01:12;4.25;;;2.90;;
40244;SDS011;25963;42.694;23.600;2023-03-01T00:03:43;3.40;;;2.63;;
40244;SDS011;25963;42.694;23.600;2023-03-01T00:06:15;3.35;;;2.10;;
40244;SDS011;25963;42.694;23.600;2023-03-01T00:08:41;4.72;;;2.20;;
40244;SDS011;25963;42.694;23.600;2023-03-01T00:11:13;3.20;;;2.17;;
40244;SDS011;25963;42.694;23.600;2023-03-01T00:13:42;3.70;;;2.30;;
40244;SDS011;25963;42.694;23.600;2023-03-01T00:16:09;2.60;;;1.60;;
40244;SDS011;25963;42.694;23.600;2023-03-01T00:18:36;2.75;;;1.70;;
40244;SDS011;25963;42.694;23.600;2023-03-01T00:21:02;3.67;;;2.22;;
40244;SDS011;25963;42.694;23.600;2023-03-01T00:23:28;3.55;;;2.00;;
40244;SDS011;25963;42.694;23.600;2023-03-01T00:25:53;3.00;;;2.08;;
40244;SDS011;25963;42.694;23.600;2023-03-01T00:28:19;3.47;;;2.28;;
40244;SDS011;25963;42.694;23.600;2023-03-01T00:30:45;3.85;;;2.22;;
40244;SDS011;25963;42.694;23.600;2023-03-01T00:33:11;4.70;;;2.58;;
40244;SDS011;25963;42.694;23.600;2023-03-01T00:35:37;3.58;;;1.70;;
40244;SDS011;25963;42.694;23.600;2023-03-01T00:38:02;5.68;;;2.15;;
40244;SDS011;25963;42.694;23.600;2023-03-01T00:40:29;3.55;;;2.05;;
40244;SDS011;25963;42.694;23.600;2023-03-01T00:42:56;3.17;;;2.30;;
40244;SDS011;25963;42.694;23.600;2023-03-01T00:45:22;3.78;;;2.13;;
40244;SDS011;25963;42.694;23.600;2023-03-01T00:47:50;7.32;;;2.30;;
40244;SDS011;25963;42.694;23.600;2023-03-01T00:50:16;3.33;;;1.70;;
40244;SDS011;25963;42.694;23.600;2023-03-01T00:52:42;4.65;;;2.22;;
40244;SDS011;25963;42.694;23.600;2023-03-01T00:55:08;2.97;;;1.83;;
40244;SDS011;25963;42.694;23.600;2023-03-01T00:57:34;3.08;;;1.65;;
40244;SDS011;25963;42.694;23.600;2023-03-01T00:59:59;2.83;;;2.58;;
40244;SDS011;25963;42.694;23.600;2023-03-01T01:02:25;3.50;;;2.00;;
40244;SDS011;25963;42.694;23.600;2023-03-01T01:04:50;4.30;;;2.17;;
40244;SDS011;25963;42.694;23.600;2023-03-01T01:07:16;2.38;;;1.95;;
40244;SDS011;25963;42.694;23.600;2023-03-01T01:09:42;2.78;;;1.88;;
40244;SDS011;25963;42.694;23.600;2023-03-01T01:12:07;6.85;;;2.40;;
40244;SDS011;25963;42.694;23.600;2023-03-01T01:14:33;3.38;;;1.95;;
40244;SDS011;25963;42.694;23.600;2023-03-01T01:16:59;2.55;;;1.73;;
40244;SDS011;25963;42.694;23.600;2023-03-01T01:19:24;2.80;;;1.85;;
40244;SDS011;25963;42.694;23.600;2023-03-01T01:21:50;3.10;;;1.70;;
40244;SDS011;25963;42.694;23.600;2023-03-01T01:24:16;2.88;;;2.35;;
40244;SDS011;25963;42.694;23.600;2023-03-01T01:26:42;3.83;;;2.42;;
40244;SDS011;25963;42.694;23.600;2023-03-01T01:29:08;2.90;;;2.10;;
40244;SDS011;25963;42.694;23.600;2023-03-01T01:31:35;5.00;;;1.88;;
40244;SDS011;25963;42.694;23.600;2023-03-01T01:34:02;3.22;;;1.80;;
40244;SDS011;25963;42.694;23.600;2023-03-01T01:36:29;3.55;;;1.90;;
40244;SDS011;25963;42.694;23.600;2023-03-01T01:38:55;2.13;;;1.52;;
40244;SDS011;25963;42.694;23.600;2023-03-01T01:41:21;2.40;;;1.73;;
40244;SDS011;25963;42.694;23.600;2023-03-01T01:46:57;2.63;;;1.63;;
40244;SDS011;25963;42.694;23.600;2023-03-01T01:52:02;1.55;;;1.00;;
40244;SDS011;25963;42.694;23.600;2023-03-01T01:57:06;0.93;;;0.80;;
40244;SDS011;25963;42.694;23.600;2023-03-01T01:59:36;2.42;;;1.30;;
40244;SDS011;25963;42.694;23.600;2023-03-01T02:02:03;2.05;;;1.38;;
40244;SDS011;25963;42.694;23.600;2023-03-01T02:04:29;1.67;;;1.20;;
40244;SDS011;25963;42.694;23.600;2023-03-01T02:07:17;4.07;;;1.70;;
40244;SDS011;25963;42.694;23.600;2023-03-01T02:09:46;2.50;;;1.48;;
40244;SDS011;25963;42.694;23.600;2023-03-01T02:12:14;3.53;;;1.98;;
40244;SDS011;25963;42.694;23.600;2023-03-01T02:14:43;2.25;;;1.50;;
40244;SDS011;25963;42.694;23.600;2023-03-01T02:17:09;2.15;;;1.30;;
40244;SDS011;25963;42.694;23.600;2023-03-01T02:22:28;2.22;;;1.40;;
40244;SDS011;25963;42.694;23.600;2023-03-01T02:27:29;2.47;;;1.38;;
40244;SDS011;25963;42.694;23.600;2023-03-01T02:30:14;2.63;;;1.55;;
40244;SDS011;25963;42.694;23.600;2023-03-01T02:32:40;6.90;;;2.25;;
40244;SDS011;25963;42.694;23.600;2023-03-01T02:35:10;4.57;;;2.38;;
40244;SDS011;25963;42.694;23.600;2023-03-01T02:37:39;3.05;;;1.90;;
40244;SDS011;25963;42.694;23.600;2023-03-01T02:40:07;3.92;;;2.05;;
40244;SDS011;25963;42.694;23.600;2023-03-01T02:42:40;3.03;;;1.88;;
40244;SDS011;25963;42.694;23.600;2023-03-01T02:45:12;2.55;;;1.73;;
40244;SDS011;25963;42.694;23.600;2023-03-01T02:47:37;4.80;;;2.88;;
40244;SDS011;25963;42.694;23.600;2023-03-01T02:50:09;2.08;;;1.27;;
40244;SDS011;25963;42.694;23.600;2023-03-01T02:52:47;1.93;;;1.50;;
40244;SDS011;25963;42.694;23.600;2023-03-01T02:55:22;19.10;;;9.75;;
40244;SDS011;25963;42.694;23.600;2023-03-01T02:57:48;21.88;;;9.95;;
40244;SDS011;25963;42.694;23.600;2023-03-01T03:00:21;38.92;;;19.25;;
40244;SDS011;25963;42.694;23.600;2023-03-01T03:02:53;33.88;;;16.08;;
40244;SDS011;25963;42.694;23.600;2023-03-01T03:05:26;51.15;;;16.77;;
40244;SDS011;25963;42.694;23.600;2023-03-01T03:07:53;276.63;;;87.82;;
40244;SDS011;25963;42.694;23.600;2023-03-01T03:10:26;91.40;;;28.30;;
40244;SDS011;25963;42.694;23.600;2023-03-01T03:12:54;188.15;;;62.70;;
40244;SDS011;25963;42.694;23.600;2023-03-01T03:15:21;69.43;;;24.80;;
40244;SDS011;25963;42.694;23.600;2023-03-01T03:17:48;148.52;;;49.38;;
40244;SDS011;25963;42.694;23.600;2023-03-01T03:20:15;129.23;;;42.92;;
40244;SDS011;25963;42.694;23.600;2023-03-01T03:22:44;226.55;;;76.00;;
40244;SDS011;25963;42.694;23.600;2023-03-01T03:25:12;41.42;;;13.50;;
40244;SDS011;25963;42.694;23.600;2023-03-01T03:27:38;26.70;;;8.82;;
40244;SDS011;25963;42.694;23.600;2023-03-01T03:30:05;321.35;;;111.60;;
40244;SDS011;25963;42.694;23.600;2023-03-01T03:32:37;350.38;;;119.72;;
40244;SDS011;25963;42.694;23.600;2023-03-01T03:35:08;33.22;;;11.30;;
40244;SDS011;25963;42.694;23.600;2023-03-01T03:37:36;43.03;;;12.80;;
40244;SDS011;25963;42.694;23.600;2023-03-01T03:40:20;13.07;;;4.38;;
40244;SDS011;25963;42.694;23.600;2023-03-01T03:42:45;10.57;;;3.83;;
40244;SDS011;25963;42.694;23.600;2023-03-01T03:45:11;26.92;;;7.15;;
40244;SDS011;25963;42.694;23.600;2023-03-01T03:47:37;69.07;;;21.52;;
40244;SDS011;25963;42.694;23.600;2023-03-01T03:50:02;14.27;;;5.15;;
40244;SDS011;25963;42.694;23.600;2023-03-01T03:52:27;9.02;;;4.50;;
40244;SDS011;25963;42.694;23.600;2023-03-01T03:54:53;117.18;;;34.85;;
40244;SDS011;25963;42.694;23.600;2023-03-01T03:57:19;240.63;;;71.68;;
40244;SDS011;25963;42.694;23.600;2023-03-01T04:02:37;232.52;;;64.93;;
40244;SDS011;25963;42.694;23.600;2023-03-01T04:05:07;85.97;;;28.30;;
40244;SDS011;25963;42.694;23.600;2023-03-01T04:07:37;68.45;;;21.20;;
40244;SDS011;25963;42.694;23.600;2023-03-01T04:10:04;234.80;;;67.63;;
40244;SDS011;25963;42.694;23.600;2023-03-01T04:12:31;205.80;;;60.40;;
40244;SDS011;25963;42.694;23.600;2023-03-01T04:14:59;350.67;;;95.80;;
40244;SDS011;25963;42.694;23.600;2023-03-01T04:17:25;394.48;;;119.50;;
40244;SDS011;25963;42.694;23.600;2023-03-01T04:19:50;347.92;;;103.22;;
40244;SDS011;25963;42.694;23.600;2023-03-01T04:22:16;253.80;;;74.07;;
40244;SDS011;25963;42.694;23.600;2023-03-01T04:24:43;170.93;;;50.20;;
40244;SDS011;25963;42.694;23.600;2023-03-01T04:27:10;115.93;;;38.60;;
40244;SDS011;25963;42.694;23.600;2023-03-01T04:29:36;130.77;;;41.13;;
40244;SDS011;25963;42.694;23.600;2023-03-01T04:32:01;121.60;;;42.33;;
40244;SDS011;25963;42.694;23.600;2023-03-01T04:34:28;58.80;;;19.60;;
40244;SDS011;25963;42.694;23.600;2023-03-01T04:36:54;107.70;;;37.78;;
40244;SDS011;25963;42.694;23.600;2023-03-01T04:39:19;83.15;;;27.25;;
40244;SDS011;25963;42.694;23.600;2023-03-01T04:41:44;93.93;;;31.33;;
40244;SDS011;25963;42.694;23.600;2023-03-01T04:44:10;169.95;;;57.42;;
40244;SDS011;25963;42.694;23.600;2023-03-01T04:46:35;252.13;;;89.03;;
40244;SDS011;25963;42.694;23.600;2023-03-01T04:49:01;161.60;;;55.35;;
40244;SDS011;25963;42.694;23.600;2023-03-01T04:51:27;190.80;;;63.40;;
40244;SDS011;25963;42.694;23.600;2023-03-01T04:53:53;117.70;;;40.35;;
40244;SDS011;25963;42.694;23.600;2023-03-01T04:56:19;266.50;;;87.85;;
40244;SDS011;25963;42.694;23.600;2023-03-01T04:58:44;116.80;;;36.90;;
40244;SDS011;25963;42.694;23.600;2023-03-01T05:01:12;51.10;;;16.02;;
40244;SDS011;25963;42.694;23.600;2023-03-01T05:03:43;94.30;;;30.13;;
40244;SDS011;25963;42.694;23.600;2023-03-01T05:06:09;357.05;;;108.70;;
40244;SDS011;25963;42.694;23.600;2023-03-01T05:08:36;193.40;;;59.03;;
40244;SDS011;25963;42.694;23.600;2023-03-01T05:11:05;118.88;;;36.08;;
40244;SDS011;25963;42.694;23.600;2023-03-01T05:13:34;189.73;;;59.75;;
40244;SDS011;25963;42.694;23.600;2023-03-01T05:16:01;79.78;;;26.35;;
40244;SDS011;25963;42.694;23.600;2023-03-01T05:18:28;113.97;;;36.63;;
40244;SDS011;25963;42.694;23.600;2023-03-01T05:20:56;191.63;;;61.88;;
40244;SDS011;25963;42.694;23.600;2023-03-01T05:23:30;211.23;;;63.78;;
40244;SDS011;25963;42.694;23.600;2023-03-01T05:26:00;207.13;;;61.92;;
40244;SDS011;25963;42.694;23.600;2023-03-01T05:28:27;174.73;;;57.00;;
40244;SDS011;25963;42.694;23.600;2023-03-01T05:30:55;113.80;;;38.17;;
40244;SDS011;25963;42.694;23.600;2023-03-01T05:33:22;240.88;;;76.90;;
40244;SDS011;25963;42.694;23.600;2023-03-01T05:35:48;139.52;;;47.67;;
40244;SDS011;25963;42.694;23.600;2023-03-01T05:38:15;103.43;;;31.60;;
40244;SDS011;25963;42.694;23.600;2023-03-01T05:40:42;107.70;;;36.42;;
40244;SDS011;25963;42.694;23.600;2023-03-01T05:43:09;68.07;;;24.02;;
40244;SDS011;25963;42.694;23.600;2023-03-01T05:45:36;205.18;;;71.43;;
40244;SDS011;25963;42.694;23.600;2023-03-01T05:48:03;153.95;;;53.97;;
40244;SDS011;25963;42.694;23.600;2023-03-01T05:50:31;47.00;;;17.10;;
40244;SDS011;25963;42.694;23.600;2023-03-01T05:53:01;24.77;;;10.23;;
40244;SDS011;25963;42.694;23.600;2023-03-01T05:55:30;15.90;;;6.43;;
40244;SDS011;25963;42.694;23.600;2023-03-01T05:58:00;26.60;;;10.13;;
40244;SDS011;25963;42.694;23.600;2023-03-01T06:00:27;78.93;;;30.38;;
40244;SDS011;25963;42.694;23.600;2023-03-01T06:02:54;97.35;;;40.55;;
40244;SDS011;25963;42.694;23.600;2023-03-01T06:05:20;33.97;;;15.57;;
40244;SDS011;25963;42.694;23.600;2023-03-01T06:07:47;25.63;;;11.23;;
40244;SDS011;25963;42.694;23.600;2023-03-01T06:10:13;21.92;;;10.80;;
40244;SDS011;25963;42.694;23.600;2023-03-01T06:12:39;17.25;;;8.70;;
40244;SDS011;25963;42.694;23.600;2023-03-01T06:15:06;14.55;;;7.50;;
40244;SDS011;25963;42.694;23.600;2023-03-01T06:17:35;9.40;;;5.95;;
40244;SDS011;25963;42.694;23.600;2023-03-01T06:20:03;9.20;;;5.45;;
40244;SDS011;25963;42.694;23.600;2023-03-01T06:22:33;7.65;;;2.65;;
40244;SDS011;25963;42.694;23.600;2023-03-01T06:24:59;9.52;;;5.22;;
40244;SDS011;25963;42.694;23.600;2023-03-01T06:27:24;3.47;;;1.15;;
40244;SDS011;25963;42.694;23.600;2023-03-01T06:29:50;4.00;;;2.70;;
40244;SDS011;25963;42.694;23.600;2023-03-01T06:32:15;10.65;;;6.03;;
40244;SDS011;25963;42.694;23.600;2023-03-01T06:34:41;3.30;;;1.13;;
40244;SDS011;25963;42.694;23.600;2023-03-01T06:37:07;7.43;;;4.18;;
40244;SDS011;25963;42.694;23.600;2023-03-01T06:39:32;10.02;;;5.30;;
40244;SDS011;25963;42.694;23.600;2023-03-01T06:41:58;11.98;;;5.68;;
40244;SDS011;25963;42.694;23.600;2023-03-01T06:44:24;5.63;;;3.55;;
40244;SDS011;25963;42.694;23.600;2023-03-01T06:46:49;8.20;;;4.55;;
40244;SDS011;25963;42.694;23.600;2023-03-01T06:49:15;8.57;;;3.90;;
40244;SDS011;25963;42.694;23.600;2023-03-01T06:51:42;6.38;;;2.53;;
40244;SDS011;25963;42.694;23.600;2023-03-01T06:54:08;2.72;;;1.42;;
40244;SDS011;25963;42.694;23.600;2023-03-01T06:56:33;1.98;;;1.40;;
40244;SDS011;25963;42.694;23.600;2023-03-01T06:58:59;3.45;;;2.25;;
40244;SDS011;25963;42.694;23.600;2023-03-01T07:01:24;6.10;;;3.28;;
40244;SDS011;25963;42.694;23.600;2023-03-01T07:03:50;3.13;;;2.03;;
40244;SDS011;25963;42.694;23.600;2023-03-01T07:06:15;3.03;;;2.10;;
40244;SDS011;25963;42.694;23.600;2023-03-01T07:08:41;2.40;;;1.52;;
40244;SDS011;25963;42.694;23.600;2023-03-01T07:11:06;2.97;;;1.50;;
40244;SDS011;25963;42.694;23.600;2023-03-01T07:13:32;3.30;;;1.02;;
40244;SDS011;25963;42.694;23.600;2023-03-01T07:15:57;37.97;;;12.85;;
40244;SDS011;25963;42.694;23.600;2023-03-01T07:18:23;47.80;;;16.27;;
40244;SDS011;25963;42.694;23.600;2023-03-01T07:20:49;36.63;;;10.90;;
40244;SDS011;25963;42.694;23.600;2023-03-01T07:23:14;57.70;;;15.98;;
40244;SDS011;25963;42.694;23.600;2023-03-01T07:25:40;20.30;;;4.47;;
40244;SDS011;25963;42.694;23.600;2023-03-01T07:28:06;53.40;;;17.35;;
40244;SDS011;25963;42.694;23.600;2023-03-01T07:30:31;68.43;;;20.27;;
40244;SDS011;25963;42.694;23.600;2023-03-01T07:32:57;3.63;;;1.35;;
40244;SDS011;25963;42.694;23.600;2023-03-01T07:35:24;44.85;;;13.90;;
40244;SDS011;25963;42.694;23.600;2023-03-01T07:37:51;11.57;;;4.03;;
40244;SDS011;25963;42.694;23.600;2023-03-01T07:40:17;20.90;;;6.82;;
40244;SDS011;25963;42.694;23.600;2023-03-01T07:42:43;17.30;;;6.50;;
40244;SDS011;25963;42.694;23.600;2023-03-01T07:45:09;4.80;;;2.00;;
40244;SDS011;25963;42.694;23.600;2023-03-01T07:47:34;13.70;;;4.00;;
40244;SDS011;25963;42.694;23.600;2023-03-01T07:50:00;30.50;;;10.18;;
40244;SDS011;25963;42.694;23.600;2023-03-01T07:52:26;3.65;;;1.63;;
40244;SDS011;25963;42.694;23.600;2023-03-01T07:54:52;18.08;;;5.50;;
40244;SDS011;25963;42.694;23.600;2023-03-01T07:57:17;12.05;;;4.28;;
40244;SDS011;25963;42.694;23.600;2023-03-01T07:59:43;5.35;;;1.90;;
40244;SDS011;25963;42.694;23.600;2023-03-01T08:02:09;8.98;;;4.40;;
40244;SDS011;25963;42.694;23.600;2023-03-01T08:04:35;21.30;;;7.20;;
40244;SDS011;25963;42.694;23.600;2023-03-01T08:07:01;38.47;;;13.23;;
40244;SDS011;25963;42.694;23.600;2023-03-01T08:09:26;45.38;;;17.80;;
40244;SDS011;25963;42.694;23.600;2023-03-01T08:11:51;14.23;;;7.07;;
40244;SDS011;25963;42.694;23.600;2023-03-01T08:14:17;9.38;;;4.65;;
40244;SDS011;25963;42.694;23.600;2023-03-01T08:16:42;16.35;;;6.32;;
40244;SDS011;25963;42.694;23.600;2023-03-01T08:19:08;16.85;;;8.18;;
40244;SDS011;25963;42.694;23.600;2023-03-01T08:21:35;21.90;;;9.82;;
40244;SDS011;25963;42.694;23.600;2023-03-01T08:24:02;15.07;;;5.78;;
40244;SDS011;25963;42.694;23.600;2023-03-01T08:26:28;23.85;;;9.23;;
40244;SDS011;25963;42.694;23.600;2023-03-01T08:28:55;34.90;;;15.48;;
40244;SDS011;25963;42.694;23.600;2023-03-01T08:31:26;8.57;;;4.43;;
40244;SDS011;25963;42.694;23.600;2023-03-01T08:33:56;32.83;;;13.45;;
40244;SDS011;25963;42.694;23.600;2023-03-01T08:36:25;15.68;;;5.68;;
40244;SDS011;25963;42.694;23.600;2023-03-01T08:38:53;16.05;;;7.00;;
40244;SDS011;25963;42.694;23.600;2023-03-01T08:41:19;6.15;;;3.25;;
40244;SDS011;25963;42.694;23.600;2023-03-01T08:43:44;9.45;;;4.75;;
40244;SDS011;25963;42.694;23.600;2023-03-01T08:46:10;8.80;;;5.47;;
40244;SDS011;25963;42.694;23.600;2023-03-01T08:48:36;9.75;;;5.50;;
40244;SDS011;25963;42.694;23.600;2023-03-01T08:51:11;10.00;;;7.57;;
40244;SDS011;25963;42.694;23.600;2023-03-01T08:53:37;4.47;;;2.85;;
40244;SDS011;25963;42.694;23.600;2023-03-01T08:56:03;5.38;;;3.35;;
40244;SDS011;25963;42.694;23.600;2023-03-01T08:58:29;3.55;;;2.50;;
40244;SDS011;25963;42.694;23.600;2023-03-01T09:00:55;4.50;;;3.42;;
40244;SDS011;25963;42.694;23.600;2023-03-01T09:03:23;2.05;;;1.48;;
40244;SDS011;25963;42.694;23.600;2023-03-01T09:05:50;6.90;;;3.65;;
40244;SDS011;25963;42.694;23.600;2023-03-01T09:08:16;8.35;;;5.38;;
40244;SDS011;25963;42.694;23.600;2023-03-01T09:10:42;1.27;;;1.08;;
40244;SDS011;25963;42.694;23.600;2023-03-01T09:13:08;4.43;;;1.27;;
40244;SDS011;25963;42.694;23.600;2023-03-01T09:15:34;2.72;;;1.45;;
40244;SDS011;25963;42.694;23.600;2023-03-01T09:18:02;1.70;;;1.00;;
40244;SDS011;25963;42.694;23.600;2023-03-01T09:20:27;5.00;;;2.92;;
40244;SDS011;25963;42.694;23.600;2023-03-01T09:22:53;16.15;;;7.80;;
40244;SDS011;25963;42.694;23.600;2023-03-01T09:25:19;31.17;;;15.25;;
40244;SDS011;25963;42.694;23.600;2023-03-01T09:27:44;5.72;;;3.15;;
40244;SDS011;25963;42.694;23.600;2023-03-01T09:30:10;6.78;;;3.00;;
40244;SDS011;25963;42.694;23.600;2023-03-01T09:32:35;1.23;;;0.90;;
40244;SDS011;25963;42.694;23.600;2023-03-01T09:35:01;2.90;;;2.00;;
40244;SDS011;25963;42.694;23.600;2023-03-01T09:37:29;2.58;;;1.77;;
40244;SDS011;25963;42.694;23.600;2023-03-01T09:39:55;1.55;;;0.88;;
40244;SDS011;25963;42.694;23.600;2023-03-01T09:42:21;3.65;;;0.85;;
40244;SDS011;25963;42.694;23.600;2023-03-01T09:44:51;0.93;;;0.50;;
40244;SDS011;25963;42.694;23.600;2023-03-01T09:47:33;1.30;;;0.77;;
40244;SDS011;25963;42.694;23.600;2023-03-01T09:55:20;1.65;;;0.85;;
40244;SDS011;25963;42.694;23.600;2023-03-01T09:57:59;2.90;;;1.85;;
40244;SDS011;25963;42.694;23.600;2023-03-01T10:08:40;2.65;;;1.20;;
40244;SDS011;25963;42.694;23.600;2023-03-01T10:13:58;2.83;;;0.60;;
40244;SDS011;25963;42.694;23.600;2023-03-01T10:19:32;2.45;;;0.63;;
40244;SDS011;25963;42.694;23.600;2023-03-01T10:22:10;0.90;;;0.73;;
40244;SDS011;25963;42.694;23.600;2023-03-01T10:24:40;2.00;;;0.32;;
40244;SDS011;25963;42.694;23.600;2023-03-01T10:27:10;1.30;;;0.55;;
40244;SDS011;25963;42.694;23.600;2023-03-01T10:32:15;2.92;;;1.73;;
40244;SDS011;25963;42.694;23.600;2023-03-01T10:34:42;1.98;;;1.33;;
40244;SDS011;25963;42.694;23.600;2023-03-01T10:37:12;0.50;;;0.25;;
40244;SDS011;25963;42.694;23.600;2023-03-01T10:42:39;1.80;;;1.10;;
40244;SDS011;25963;42.694;23.600;2023-03-01T10:48:05;1.10;;;0.52;;
40244;SDS011;25963;42.694;23.600;2023-03-01T10:50:48;0.57;;;0.52;;
40244;SDS011;25963;42.694;23.600;2023-03-01T10:53:36;2.22;;;0.30;;
40244;SDS011;25963;42.694;23.600;2023-03-01T10:56:14;1.02;;;0.38;;
40244;SDS011;25963;42.694;23.600;2023-03-01T11:01:26;46.25;;;17.05;;
40244;SDS011;25963;42.694;23.600;2023-03-01T11:06:31;23.00;;;7.57;;
40244;SDS011;25963;42.694;23.600;2023-03-01T11:09:01;40.97;;;15.27;;
40244;SDS011;25963;42.694;23.600;2023-03-01T11:11:54;21.90;;;8.30;;
40244;SDS011;25963;42.694;23.600;2023-03-01T11:14:21;10.88;;;4.38;;
40244;SDS011;25963;42.694;23.600;2023-03-01T11:16:58;13.10;;;5.28;;
40244;SDS011;25963;42.694;23.600;2023-03-01T11:19:26;4.88;;;2.60;;
40244;SDS011;25963;42.694;23.600;2023-03-01T11:24:53;10.88;;;4.63;;
40244;SDS011;25963;42.694;23.600;2023-03-01T11:30:27;29.50;;;10.70;;
40244;SDS011;25963;42.694;23.600;2023-03-01T11:35:53;29.63;;;12.98;;
40244;SDS011;25963;42.694;23.600;2023-03-01T11:38:26;26.75;;;11.75;;
40244;SDS011;25963;42.694;23.600;2023-03-01T11:43:53;18.90;;;8.25;;
40244;SDS011;25963;42.694;23.600;2023-03-01T11:51:49;22.25;;;10.55;;
40244;SDS011;25963;42.694;23.600;2023-03-01T11:57:00;41.65;;;19.02;;
40244;SDS011;25963;42.694;23.600;2023-03-01T12:11:02;13.13;;;6.50;;
40244;SDS011;25963;42.694;23.600;2023-03-01T12:16:47;10.07;;;5.15;;
40244;SDS011;25963;42.694;23.600;2023-03-01T12:22:09;10.27;;;4.80;;
40244;SDS011;25963;42.694;23.600;2023-03-01T12:27:45;12.48;;;6.25;;
40244;SDS011;25963;42.694;23.600;2023-03-01T12:38:32;19.35;;;6.53;;
40244;SDS011;25963;42.694;23.600;2023-03-01T12:49:11;4.32;;;2.10;;
40244;SDS011;25963;42.694;23.600;2023-03-01T12:51:42;49.58;;;14.57;;
40244;SDS011;25963;42.694;23.600;2023-03-01T12:54:16;3.25;;;1.88;;
40244;SDS011;25963;42.694;23.600;2023-03-01T12:56:49;9.25;;;3.67;;
40244;SDS011;25963;42.694;23.600;2023-03-01T13:05:00;33.65;;;11.70;;
40244;SDS011;25963;42.694;23.600;2023-03-01T13:11:00;5.53;;;2.65;;
40244;SDS011;25963;42.694;23.600;2023-03-01T13:13:28;9.82;;;4.00;;
40244;SDS011;25963;42.694;23.600;2023-03-01T13:15:54;59.95;;;18.92;;
40244;SDS011;25963;42.694;23.600;2023-03-01T13:20:49;7.63;;;3.30;;
40244;SDS011;25963;42.694;23.600;2023-03-01T13:31:00;79.03;;;28.20;;
40244;SDS011;25963;42.694;23.600;2023-03-01T13:33:53;24.42;;;10.45;;
40244;SDS011;25963;42.694;23.600;2023-03-01T13:52:37;8.90;;;4.53;;
40244;SDS011;25963;42.694;23.600;2023-03-01T13:55:26;11.38;;;6.68;;
40244;SDS011;25963;42.694;23.600;2023-03-01T13:57:57;8.43;;;2.78;;
40244;SDS011;25963;42.694;23.600;2023-03-01T14:02:59;15.18;;;8.30;;
40244;SDS011;25963;42.694;23.600;2023-03-01T14:05:37;6.63;;;3.70;;
40244;SDS011;25963;42.694;23.600;2023-03-01T14:08:03;10.05;;;5.15;;
40244;SDS011;25963;42.694;23.600;2023-03-01T14:10:31;13.20;;;5.38;;
40244;SDS011;25963;42.694;23.600;2023-03-01T14:13:18;6.13;;;3.47;;
40244;SDS011;25963;42.694;23.600;2023-03-01T14:21:31;6.70;;;2.70;;
40244;SDS011;25963;42.694;23.600;2023-03-01T14:23:57;5.75;;;2.45;;
40244;SDS011;25963;42.694;23.600;2023-03-01T14:26:23;2.67;;;2.00;;
40244;SDS011;25963;42.694;23.600;2023-03-01T14:28:49;3.95;;;1.88;;
40244;SDS011;25963;42.694;23.600;2023-03-01T14:33:59;6.40;;;2.90;;
40244;SDS011;25963;42.694;23.600;2023-03-01T14:36:26;4.63;;;2.30;;
40244;SDS011;25963;42.694;23.600;2023-03-01T14:38:53;4.55;;;2.78;;
40244;SDS011;25963;42.694;23.600;2023-03-01T14:41:23;7.65;;;3.33;;
40244;SDS011;25963;42.694;23.600;2023-03-01T14:46:25;4.63;;;2.85;;
40244;SDS011;25963;42.694;23.600;2023-03-01T14:48:56;7.57;;;2.40;;
40244;SDS011;25963;42.694;23.600;2023-03-01T14:51:26;6.47;;;2.78;;
40244;SDS011;25963;42.694;23.600;2023-03-01T14:53:52;5.45;;;2.42;;
40244;SDS011;25963;42.694;23.600;2023-03-01T14:56:18;5.90;;;2.70;;
40244;SDS011;25963;42.694;23.600;2023-03-01T14:58:44;4.25;;;2.10;;
40244;SDS011;25963;42.694;23.600;2023-03-01T15:01:13;4.25;;;2.30;;
40244;SDS011;25963;42.694;23.600;2023-03-01T15:03:49;3.55;;;2.10;;
40244;SDS011;25963;42.694;23.600;2023-03-01T15:06:17;5.22;;;2.28;;
40244;SDS011;25963;42.694;23.600;2023-03-01T15:08:46;7.38;;;2.65;;
40244;SDS011;25963;42.694;23.600;2023-03-01T15:13:38;3.47;;;2.47;;
40244;SDS011;25963;42.694;23.600;2023-03-01T15:16:14;4.07;;;2.88;;
40244;SDS011;25963;42.694;23.600;2023-03-01T15:18:45;5.10;;;2.60;;
40244;SDS011;25963;42.694;23.600;2023-03-01T15:21:16;6.20;;;3.00;;
40244;SDS011;25963;42.694;23.600;2023-03-01T15:23:54;4.32;;;2.17;;
40244;SDS011;25963;42.694;23.600;2023-03-01T15:26:32;2.70;;;1.83;;
40244;SDS011;25963;42.694;23.600;2023-03-01T15:29:04;4.95;;;2.40;;
40244;SDS011;25963;42.694;23.600;2023-03-01T15:31:36;4.13;;;2.20;;
40244;SDS011;25963;42.694;23.600;2023-03-01T15:36:49;3.75;;;2.20;;
40244;SDS011;25963;42.694;23.600;2023-03-01T15:41:58;7.03;;;3.33;;
40244;SDS011;25963;42.694;23.600;2023-03-01T15:44:28;8.30;;;3.60;;
40244;SDS011;25963;42.694;23.600;2023-03-01T15:52:10;45.35;;;20.13;;
40244;SDS011;25963;42.694;23.600;2023-03-01T15:54:47;24.30;;;10.07;;
40244;SDS011;25963;42.694;23.600;2023-03-01T15:57:13;31.40;;;13.68;;
40244;SDS011;25963;42.694;23.600;2023-03-01T15:59:39;18.65;;;8.73;;
40244;SDS011;25963;42.694;23.600;2023-03-01T16:02:09;13.57;;;5.78;;
40244;SDS011;25963;42.694;23.600;2023-03-01T16:04:37;20.85;;;9.43;;
40244;SDS011;25963;42.694;23.600;2023-03-01T16:07:04;21.83;;;11.32;;
40244;SDS011;25963;42.694;23.600;2023-03-01T16:09:30;20.92;;;9.18;;
40244;SDS011;25963;42.694;23.600;2023-03-01T16:11:55;16.35;;;10.05;;
40244;SDS011;25963;42.694;23.600;2023-03-01T16:14:20;49.75;;;23.90;;
40244;SDS011;25963;42.694;23.600;2023-03-01T16:16:46;153.10;;;50.83;;
40244;SDS011;25963;42.694;23.600;2023-03-01T16:19:15;104.53;;;29.02;;
40244;SDS011;25963;42.694;23.600;2023-03-01T16:21:41;74.88;;;22.98;;
40244;SDS011;25963;42.694;23.600;2023-03-01T16:24:08;44.88;;;13.88;;
40244;SDS011;25963;42.694;23.600;2023-03-01T16:26:34;54.28;;;17.95;;
40244;SDS011;25963;42.694;23.600;2023-03-01T16:29:02;62.38;;;21.20;;
40244;SDS011;25963;42.694;23.600;2023-03-01T16:31:27;29.92;;;10.32;;
40244;SDS011;25963;42.694;23.600;2023-03-01T16:33:57;40.28;;;13.70;;
40244;SDS011;25963;42.694;23.600;2023-03-01T16:36:25;105.60;;;35.40;;
40244;SDS011;25963;42.694;23.600;2023-03-01T16:38:53;62.60;;;20.80;;
40244;SDS011;25963;42.694;23.600;2023-03-01T16:41:20;41.35;;;14.48;;
40244;SDS011;25963;42.694;23.600;2023-03-01T16:43:47;53.85;;;17.40;;
40244;SDS011;25963;42.694;23.600;2023-03-01T16:46:13;43.22;;;16.40;;
40244;SDS011;25963;42.694;23.600;2023-03-01T16:48:40;29.88;;;12.02;;
40244;SDS011;25963;42.694;23.600;2023-03-01T17:11:40;15.05;;;9.35;;
40244;SDS011;25963;42.694;23.600;2023-03-01T17:14:06;15.57;;;6.85;;
40244;SDS011;25963;42.694;23.600;2023-03-01T17:16:32;6.72;;;4.00;;
40244;SDS011;25963;42.694;23.600;2023-03-01T17:18:57;5.35;;;3.42;;
40244;SDS011;25963;42.694;23.600;2023-03-01T17:21:23;8.27;;;4.32;;
40244;SDS011;25963;42.694;23.600;2023-03-01T17:23:48;12.00;;;4.97;;
40244;SDS011;25963;42.694;23.600;2023-03-01T17:26:14;5.55;;;3.67;;
40244;SDS011;25963;42.694;23.600;2023-03-01T17:28:40;6.25;;;4.13;;
40244;SDS011;25963;42.694;23.600;2023-03-01T17:31:07;8.82;;;4.90;;
40244;SDS011;25963;42.694;23.600;2023-03-01T17:33:33;11.23;;;8.32;;
40244;SDS011;25963;42.694;23.600;2023-03-01T17:35:59;10.02;;;6.72;;